Time;durP1;ratioP1;P1;durP2;ratioP2;P2;SDS_P1;SDS_P2;PMS_P1;PMS_P2;Temp;Humidity;BMP_temperature;BMP_pressure;BME280_temperature;BME280_humidity;BME280_pressure;Samples;Min_cycle;Max_cycle;Signal;HPM_P1;HPM_P2
2022/05/13 10:15:10;;;;;;;;;;;;;;;4.22;96.28;100145.47;6005738;22;6018597;-96
2022/05/13 10:17:40;;;;;;;;;;;;;;;4.08;95.06;100141.22;6253521;23;19922;-85
2022/05/13 10:20:09;;;;;;;;;;;;;;;4.08;94.62;100138.59;6226632;23;19912;-85
2022/05/13 10:22:50;;;;;;;;;;;;;;;3.98;93.54;100134.34;6253422;23;19922;-84
2022/05/13 10:25:30;;;;;;;;;;;;;;;3.97;92.99;100129.97;6221668;23;20298;-84
2022/05/13 10:27:57;;;;;;;;;;;;;;;4.05;93.58;100135.16;6245326;23;19912;-89
2022/05/13 10:30:34;;;;;;;;;;;;;;;3.98;93.81;100131.72;6219549;23;19915;-90
2022/05/13 10:33:06;;;;;;;;;;;;;;;4.07;94.02;100125.50;6246329;23;19915;-90
2022/05/13 10:35:33;;;;;;;;;;;;;;;4.02;94.21;100120.34;6246864;23;20010;-93
2022/05/13 10:38:01;;;;;;;;;;;;;;;4.08;94.36;100117.63;6219639;23;19915;-89
2022/05/13 10:40:31;;;;;;;;;;;;;;;4.05;94.50;100129.91;6246571;23;20369;-91
2022/05/13 10:42:56;;;;;;;;;;;;;;;4.03;94.43;100127.31;6244974;23;19907;-92
2022/05/13 10:45:25;;;;;;;;;;;;;;;4.09;94.44;100135.09;6245857;23;19986;-92
2022/05/13 10:48:03;;;;;;;;;;;;;;;4.12;94.03;100135.06;6245417;23;19964;-90
2022/05/13 10:50:36;;;;;;;;;;;;;;;4.02;93.98;100125.59;6219666;23;20243;-86
2022/05/13 10:53:05;;;;;;;;;;;;;;;4.14;94.00;100119.31;6246195;23;19970;-89
2022/05/13 10:55:30;;;;;;;;;;;;;;;4.05;94.43;100125.53;6246774;23;19911;-86
2022/05/13 10:58:07;;;;;;;;;;;;;;;4.19;94.85;100123.59;6244682;23;20347;-90
2022/05/13 11:00:58;;;;;;;;;;;;;;;4.37;96.01;100113.78;6246419;23;19912;-91
2022/05/13 11:03:30;;;;;;;;;;;;;;;4.82;99.69;100110.56;6239382;23;19923;-89
2022/05/13 11:05:58;;;;;;;;;;;;;;;5.05;100.00;100120.75;6246185;23;19938;-89
2022/05/13 11:08:26;;;;;;;;;;;;;;;4.70;100.00;100111.63;6246386;23;19915;-89
2022/05/13 11:10:58;;;;;;;;;;;;;;;4.45;100.00;100119.84;6219161;23;19939;-90
2022/05/13 11:13:24;;;;;;;;;;;;;;;4.23;99.12;100113.09;6244888;23;19943;-87
2022/05/13 11:15:52;;;;;;;;;;;;;;;4.24;98.44;100101.72;6247187;23;20294;-86
2022/05/13 11:18:17;;;;;;;;;;;;;;;4.38;97.61;100102.41;6246566;23;19938;-88
2022/05/13 11:21:01;;;;;;;;;;;;;;;4.37;96.91;100105.91;6246100;23;20323;-87
2022/05/13 11:23:29;;;;;;;;;;;;;;;4.63;97.46;100102.13;6246198;23;19920;-86
2022/05/13 11:26:08;;;;;;;;;;;;;;;4.94;100.00;100099.03;6219396;23;19908;-87
2022/05/13 11:28:43;;;;;;;;;;;;;;;5.28;100.00;100105.53;6244676;23;19934;-91
2022/05/13 11:31:27;;;;;;;;;;;;;;;4.86;100.00;100107.03;6245949;23;20006;-87
2022/05/13 11:34:07;;;;;;;;;;;;;;;4.50;100.00;100107.53;6219033;23;20377;-85
2022/05/13 11:36:36;;;;;;;;;;;;;;;4.40;99.38;100112.91;6218444;23;19932;-92
2022/05/13 11:39:02;;;;;;;;;;;;;;;4.31;98.12;100106.03;6219018;23;19911;-91
2022/05/13 11:41:32;;;;;;;;;;;;;;;4.35;97.42;100105.06;6219491;23;20212;-91
2022/05/13 11:43:59;;;;;;;;;;;;;;;4.31;96.91;100109.50;6217942;23;19961;-86
2022/05/13 11:46:25;;;;;;;;;;;;;;;4.31;96.33;100106.88;6246128;23;19912;-88
2022/05/13 11:48:53;;;;;;;;;;;;;;;4.27;95.95;100093.81;6218850;23;19985;-90
2022/05/13 11:51:20;;;;;;;;;;;;;;;4.21;95.94;100094.75;6245776;23;20332;-91
2022/05/13 11:53:47;;;;;;;;;;;;;;;4.16;95.86;100102.69;6219000;23;19912;-85
2022/05/13 11:56:13;;;;;;;;;;;;;;;4.26;96.06;100099.94;6245744;23;19912;-84
2022/05/13 11:58:46;;;;;;;;;;;;;;;4.19;95.67;100092.13;6217218;23;19961;-86
2022/05/13 12:01:11;;;;;;;;;;;;;;;4.31;95.80;100090.28;6218743;23;19916;-90
2022/05/13 12:03:37;;;;;;;;;;;;;;;4.37;95.60;100090.19;6245496;23;19994;-88
2022/05/13 12:06:06;;;;;;;;;;;;;;;4.35;95.32;100091.97;6245919;23;19946;-88
2022/05/13 12:08:37;;;;;;;;;;;;;;;4.43;95.67;100084.00;6218846;23;20382;-90
2022/05/13 12:11:02;;;;;;;;;;;;;;;4.39;95.24;100083.19;6218799;23;19918;-90
2022/05/13 12:13:46;;;;;;;;;;;;;;;4.40;95.13;100078.78;6244126;23;19939;-91
2022/05/13 12:16:26;;;;;;;;;;;;;;;4.30;94.57;100078.91;6245449;23;19923;-91
2022/05/13 12:19:12;;;;;;;;;;;;;;;4.32;94.58;100087.63;6245644;23;19918;-88
2022/05/13 12:21:41;;;;;;;;;;;;;;;4.26;94.40;100081.56;6158303;23;19911;-88
2022/05/13 12:24:10;;;;;;;;;;;;;;;4.26;94.25;100086.81;6245579;23;19912;-90
2022/05/13 12:26:53;;;;;;;;;;;;;;;4.22;94.37;100080.75;6246054;23;20227;-88
2022/05/13 12:29:23;;;;;;;;;;;;;;;4.17;93.73;100086.06;6245606;23;20354;-91
2022/05/13 12:32:09;;;;;;;;;;;;;;;4.21;94.14;100072.91;6246011;23;19912;-90
2022/05/13 12:37:37;;;;;;;;;;;;;;;5.21;99.89;100080.22;6245463;23;20046;-91
2022/05/13 12:40:03;;;;;;;;;;;;;;;5.57;100.00;100087.53;6245393;23;19911;-91
2022/05/13 12:42:38;;;;;;;;;;;;;;;5.13;100.00;100083.88;6243804;23;19918;-86
2022/05/13 12:45:05;;;;;;;;;;;;;;;4.68;100.00;100085.41;6245316;23;19918;-91
2022/05/13 12:47:31;;;;;;;;;;;;;;;4.58;98.96;100077.66;6245254;23;20153;-90
2022/05/13 12:49:56;;;;;;;;;;;;;;;5.14;100.00;100077.72;6245470;23;19912;-90
2022/05/13 12:52:26;;;;;;;;;;;;;;;5.47;100.00;100076.28;6218484;23;19915;-92
2022/05/13 12:54:53;;;;;;;;;;;;;;;5.48;100.00;100078.03;6245328;23;19921;-92
2022/05/13 12:57:24;;;;;;;;;;;;;;;5.00;100.00;100076.19;6216746;23;19911;-90
2022/05/13 12:59:52;;;;;;;;;;;;;;;4.79;100.00;100066.88;6245410;23;19931;-89
2022/05/13 13:02:20;;;;;;;;;;;;;;;4.57;100.00;100068.06;6245634;23;19911;-92
2022/05/13 13:05:04;;;;;;;;;;;;;;;4.55;99.42;100068.09;6218395;23;20324;-91
2022/05/13 13:07:32;;;;;;;;;;;;;;;4.58;98.63;100077.66;6245318;23;19915;-91
2022/05/13 13:09:58;;;;;;;;;;;;;;;4.87;99.77;100070.25;6245493;23;19912;-90
2022/05/13 13:12:42;;;;;;;;;;;;;;;5.21;100.00;100067.09;6216470;23;20382;-90
2022/05/13 13:15:07;;;;;;;;;;;;;;;5.58;100.00;100063.81;6244923;23;19927;-91
2022/05/13 13:17:39;;;;;;;;;;;;;;;5.02;100.00;100063.03;6218873;23;19920;-90
2022/05/13 13:20:06;;;;;;;;;;;;;;;4.68;100.00;100063.53;6245290;23;19924;-90
2022/05/13 13:22:34;;;;;;;;;;;;;;;4.61;99.83;100062.75;6218343;23;19912;-91
2022/05/13 13:25:00;;;;;;;;;;;;;;;4.62;98.56;100058.38;6218203;23;19915;-90
2022/05/13 13:27:28;;;;;;;;;;;;;;;4.55;97.50;100057.59;6216874;23;20247;-90
2022/05/13 13:29:54;;;;;;;;;;;;;;;4.46;96.54;100061.19;6218743;23;19918;-92
2022/05/13 13:32:21;;;;;;;;;;;;;;;4.39;95.72;100067.44;6244916;23;19947;-93
2022/05/13 13:34:53;;;;;;;;;;;;;;;4.37;95.63;100053.44;6245160;23;19916;-91
2022/05/13 13:37:20;;;;;;;;;;;;;;;4.45;95.54;100061.22;6218100;23;19911;-92
2022/05/13 13:39:46;;;;;;;;;;;;;;;4.46;95.22;100053.31;6245105;23;19923;-91
2022/05/13 13:42:12;;;;;;;;;;;;;;;4.43;95.38;100049.88;6243346;23;19915;-92
2022/05/13 13:44:38;;;;;;;;;;;;;;;4.46;95.35;100057.72;6245406;23;19916;-90
2022/05/13 13:47:06;;;;;;;;;;;;;;;4.34;94.73;100053.47;6218659;23;19947;-92
2022/05/13 13:49:35;;;;;;;;;;;;;;;4.28;94.37;100046.56;6245361;23;19912;-92
2022/05/13 13:52:05;;;;;;;;;;;;;;;4.26;94.01;100040.50;6218181;23;19947;-89
2022/05/13 13:54:37;;;;;;;;;;;;;;;4.29;93.92;100042.19;6244957;23;19911;-92
2022/05/13 13:57:15;;;;;;;;;;;;;;;4.19;93.35;100036.19;6243382;23;19950;-91
2022/05/13 13:59:48;;;;;;;;;;;;;;;4.28;94.10;100036.09;6219250;23;19912;-91
2022/05/13 14:02:29;;;;;;;;;;;;;;;4.18;94.42;100048.44;6247398;23;19919;-92
2022/05/13 14:04:54;;;;;;;;;;;;;;;4.88;98.25;100050.09;6247492;23;19915;-92
2022/05/13 14:07:20;;;;;;;;;;;;;;;5.18;100.00;100046.13;6220089;23;19931;-93
2022/05/13 14:09:46;;;;;;;;;;;;;;;5.24;100.00;100048.66;6246803;23;19918;-91
2022/05/13 14:12:14;;;;;;;;;;;;;;;4.91;100.00;100048.31;6218484;23;19938;-88
2022/05/13 14:14:41;;;;;;;;;;;;;;;4.89;100.00;100052.69;6219740;23;19934;-91
2022/05/13 14:17:07;;;;;;;;;;;;;;;5.24;100.00;100048.66;6219936;23;19911;-92
2022/05/13 14:19:38;;;;;;;;;;;;;;;5.43;100.00;100048.34;6247223;23;19912;-92
2022/05/13 14:22:05;;;;;;;;;;;;;;;5.08;100.00;100047.16;6246854;23;19987;-88
2022/05/13 14:24:36;;;;;;;;;;;;;;;4.70;100.00;100048.63;6246816;23;20216;-90
2022/05/13 14:27:15;;;;;;;;;;;;;;;4.58;99.10;100043.53;6245234;23;19915;-90
2022/05/13 14:29:41;;;;;;;;;;;;;;;5.23;96.21;100028.53;6246975;23;19915;-87
2022/05/13 14:32:08;;;;;;;;;;;;;;;4.83;96.27;100037.03;6219841;23;19911;-91
2022/05/13 14:34:34;;;;;;;;;;;;;;;4.62;96.15;100037.38;6246325;23;19912;-88
2022/05/13 14:37:01;;;;;;;;;;;;;;;4.64;95.92;100036.47;6219709;23;19954;-90
2022/05/13 14:39:50;;;;;;;;;;;;;;;4.70;97.04;100031.09;6246443;23;19911;-91
2022/05/13 14:42:18;;;;;;;;;;;;;;;5.24;100.00;100032.03;6244687;23;19922;-89
2022/05/13 14:44:45;;;;;;;;;;;;;;;5.58;100.00;100040.16;6219955;23;19986;-86
2022/05/13 14:47:25;;;;;;;;;;;;;;;5.33;100.00;100024.00;6246378;23;20373;-92
2022/05/13 14:49:50;;;;;;;;;;;;;;;4.91;100.00;100029.94;6246509;23;19916;-89
2022/05/13 14:52:27;;;;;;;;;;;;;;;4.73;100.00;100030.22;6219025;23;19912;-92
2022/05/13 14:54:54;;;;;;;;;;;;;;;4.73;99.32;100030.22;6219549;23;19916;-90
2022/05/13 14:57:19;;;;;;;;;;;;;;;4.60;98.23;100028.66;6245633;23;19958;-90
2022/05/13 14:59:50;;;;;;;;;;;;;;;4.57;97.38;100029.56;6219708;23;19915;-89
2022/05/13 15:02:26;;;;;;;;;;;;;;;4.52;96.50;100031.41;6219340;23;20298;-86
2022/05/13 15:04:54;;;;;;;;;;;;;;;4.57;96.75;100034.81;6219382;23;19978;-90
2022/05/13 15:07:37;;;;;;;;;;;;;;;4.94;98.06;100030.78;6219534;23;19966;-90
2022/05/13 15:10:15;;;;;;;;;;;;;;;5.45;100.00;100022.88;6219491;23;20281;-88
2022/05/13 15:12:40;;;;;;;;;;;;;;;5.62;100.00;100031.34;6218878;23;19915;-90
2022/05/13 15:15:07;;;;;;;;;;;;;;;5.16;100.00;100026.91;6219467;23;20454;-90
2022/05/13 15:17:38;;;;;;;;;;;;;;;4.82;100.00;100026.56;6246622;23;20318;-91
2022/05/13 15:20:04;;;;;;;;;;;;;;;4.69;99.27;100025.88;6219457;23;19931;-89
2022/05/13 15:22:30;;;;;;;;;;;;;;;4.55;97.60;100024.34;6219266;23;19915;-92
2022/05/13 15:24:56;;;;;;;;;;;;;;;4.59;96.86;100024.28;6246225;23;19923;-91
2022/05/13 15:27:25;;;;;;;;;;;;;;;4.49;96.02;100031.44;6217924;23;19919;-92
2022/05/13 15:29:50;;;;;;;;;;;;;;;4.55;96.63;100032.22;6246001;23;20220;-90
2022/05/13 15:32:17;;;;;;;;;;;;;;;4.91;98.48;100031.66;6219589;23;19927;-90
2022/05/13 15:34:43;;;;;;;;;;;;;;;5.31;100.00;100023.13;6246020;23;19916;-90
2022/05/13 15:37:08;;;;;;;;;;;;;;;5.52;100.00;100029.78;6219618;23;19981;-90
2022/05/13 15:39:34;;;;;;;;;;;;;;;5.02;100.00;100021.84;6245962;23;20006;-86
2022/05/13 15:42:00;;;;;;;;;;;;;;;4.79;100.00;100024.88;6217707;23;19916;-86
2022/05/13 15:44:26;;;;;;;;;;;;;;;4.66;99.37;100023.28;6219104;23;19912;-91
2022/05/13 15:46:51;;;;;;;;;;;;;;;4.91;99.89;100023.78;6245812;23;19986;-90
2022/05/13 15:54:47;;;;;;;;;;;;;;;5.46;100.00;100022.00;6246019;23;19918;-89
2022/05/13 15:57:13;;;;;;;;;;;;;;;4.99;100.00;100019.28;6217297;23;20537;-88
2022/05/13 15:59:38;;;;;;;;;;;;;;;5.00;100.00;100026.28;6219483;23;19922;-89
2022/05/13 16:02:04;;;;;;;;;;;;;;;5.45;100.00;100025.53;6245932;23;19917;-90
2022/05/13 16:04:29;;;;;;;;;;;;;;;5.70;100.00;100031.19;6246396;23;19915;-87
2022/05/13 16:06:54;;;;;;;;;;;;;;;5.90;100.00;100028.16;6219231;23;19943;-87
2022/05/13 16:09:19;;;;;;;;;;;;;;;5.28;100.00;100024.06;6219067;23;19927;-94
2022/05/13 16:11:47;;;;;;;;;;;;;;;4.98;100.00;100030.69;6219845;23;20354;-90
2022/05/13 16:14:16;;;;;;;;;;;;;;;4.86;100.00;100030.88;6244182;23;19938;-93
2022/05/13 16:16:44;;;;;;;;;;;;;;;4.75;99.82;100028.41;6246076;23;19916;-91
2022/05/13 16:19:12;;;;;;;;;;;;;;;5.15;100.00;100022.53;6246336;23;19919;-92
2022/05/13 16:21:39;;;;;;;;;;;;;;;5.52;100.00;100021.00;6245946;23;19951;-92
2022/05/13 16:24:06;;;;;;;;;;;;;;;5.72;100.00;100018.03;6246292;23;20276;-92
2022/05/13 16:26:34;;;;;;;;;;;;;;;5.22;100.00;100016.28;6218821;23;19990;-92
2022/05/13 16:28:59;;;;;;;;;;;;;;;5.11;100.00;100020.00;6217789;23;19922;-93
2022/05/13 16:31:26;;;;;;;;;;;;;;;5.60;100.00;100017.34;6219149;23;19955;-90
2022/05/13 16:33:54;;;;;;;;;;;;;;;5.81;100.00;100018.72;6245693;23;19911;-91
2022/05/13 16:36:19;;;;;;;;;;;;;;;5.49;100.00;100021.94;6212750;23;19983;-90
2022/05/13 16:38:46;;;;;;;;;;;;;;;5.07;100.00;100014.78;6212915;23;19912;-91
2022/05/13 16:41:12;;;;;;;;;;;;;;;4.97;100.00;100022.84;6212865;23;20394;-91
2022/05/13 16:43:37;;;;;;;;;;;;;;;5.26;100.00;100025.88;6185662;23;19967;-93
2022/05/13 16:46:03;;;;;;;;;;;;;;;5.67;100.00;100025.13;6212975;23;19918;-92
2022/05/13 16:48:28;;;;;;;;;;;;;;;5.92;100.00;100029.03;6213094;23;20244;-91
2022/05/13 16:50:53;;;;;;;;;;;;;;;5.53;100.00;100033.28;6212539;23;19919;-91
2022/05/13 16:53:18;;;;;;;;;;;;;;;5.05;100.00;100029.69;6187495;23;20337;-90
2022/05/13 16:55:46;;;;;;;;;;;;;;;4.87;100.00;100032.63;6212200;23;19912;-84
2022/05/13 16:58:15;;;;;;;;;;;;;;;4.80;98.19;100030.97;6185795;23;19919;-85
2022/05/13 17:00:40;;;;;;;;;;;;;;;4.75;96.67;100027.56;6226185;23;19927;-85
2022/05/13 17:03:06;;;;;;;;;;;;;;;4.78;96.29;100032.75;6218720;23;19911;-87
2022/05/13 17:05:33;;;;;;;;;;;;;;;5.26;99.46;100032.84;6243117;23;19916;-86
2022/05/13 17:07:59;;;;;;;;;;;;;;;5.62;100.00;100033.97;6245452;23;19982;-86
2022/05/13 17:21:25;;;;;;;;;;;;;;;5.85;100.00;100026.53;6246011;23;20446;-92
2022/05/13 17:23:50;;;;;;;;;;;;;;;5.24;100.00;100025.00;6219704;23;19918;-93
2022/05/13 17:26:16;;;;;;;;;;;;;;;5.59;100.00;100020.88;6246277;23;19947;-94
2022/05/13 17:28:42;;;;;;;;;;;;;;;5.93;100.00;100016.72;6245204;23;19916;-91
2022/05/13 17:31:08;;;;;;;;;;;;;;;6.01;100.00;100025.34;6246121;23;19912;-93
2022/05/13 17:33:33;;;;;;;;;;;;;;;5.35;100.00;100026.59;6245466;23;19958;-88
2022/05/13 17:35:59;;;;;;;;;;;;;;;5.15;100.00;100024.28;6220701;23;20057;-90
2022/05/13 17:38:26;;;;;;;;;;;;;;;5.47;100.00;100031.59;6248142;23;19918;-92
2022/05/13 17:40:51;;;;;;;;;;;;;;;5.85;100.00;100024.75;6221382;23;19934;-90
2022/05/13 17:43:18;;;;;;;;;;;;;;;5.97;100.00;100023.69;6219302;23;20359;-89
2022/05/13 17:45:45;;;;;;;;;;;;;;;5.43;100.00;100016.81;6220596;23;19916;-92
2022/05/13 17:48:12;;;;;;;;;;;;;;;5.19;100.00;100018.97;6247805;23;19926;-93
2022/05/13 17:50:37;;;;;;;;;;;;;;;5.55;100.00;100024.47;6220532;23;19915;-93
2022/05/13 17:53:05;;;;;;;;;;;;;;;5.85;100.00;100030.03;6247818;23;20350;-92
2022/05/13 17:55:30;;;;;;;;;;;;;;;5.96;100.00;100030.69;6247075;23;19934;-90
2022/05/13 17:57:56;;;;;;;;;;;;;;;5.38;100.00;100034.41;6247284;23;20331;-94
2022/05/13 18:00:21;;;;;;;;;;;;;;;5.20;100.00;100033.84;6248345;23;19916;-87
2022/05/13 18:02:47;;;;;;;;;;;;;;;5.04;100.00;100034.97;6220793;23;19911;-91
2022/05/13 18:05:13;;;;;;;;;;;;;;;4.93;98.71;100035.16;6221106;23;20312;-93
2022/05/13 18:07:39;;;;;;;;;;;;;;;5.34;100.00;100028.31;6248029;23;19912;-91
2022/05/13 18:10:04;;;;;;;;;;;;;;;5.72;100.00;100037.28;6247993;23;19991;-93
2022/05/13 18:12:30;;;;;;;;;;;;;;;5.95;100.00;100035.97;6247866;23;20002;-93
2022/05/13 18:14:58;;;;;;;;;;;;;;;5.43;100.00;100030.81;6251519;22;19920;-87
2022/05/13 18:17:23;;;;;;;;;;;;;;;5.14;100.00;100038.31;6221868;23;20334;-88
2022/05/13 18:19:49;;;;;;;;;;;;;;;5.23;100.00;100031.16;6219575;23;19923;-90
2022/05/13 18:22:14;;;;;;;;;;;;;;;5.74;100.00;100037.25;6246966;23;20013;-90
2022/05/13 18:24:40;;;;;;;;;;;;;;;5.92;100.00;100033.38;6219693;23;19927;-87
2022/05/13 18:27:08;;;;;;;;;;;;;;;6.13;100.00;100029.53;6245539;23;19911;-84
2022/05/13 18:29:33;;;;;;;;;;;;;;;7.19;100.00;100031.47;6246721;23;19994;-88
2022/05/13 18:31:59;;;;;;;;;;;;;;;6.56;100.00;100033.84;6220561;23;20606;-91
2022/05/13 18:34:24;;;;;;;;;;;;;;;7.15;100.00;100037.72;6221848;23;19920;-83
2022/05/13 18:36:49;;;;;;;;;;;;;;;7.00;100.00;100039.84;6249523;23;20022;-87
2022/05/13 18:39:15;;;;;;;;;;;;;;;6.29;100.00;100044.06;6248215;23;19907;-93
2022/05/13 18:47:09;;;;;;;;;;;;;;;5.92;100.00;100046.53;6250973;23;19915;-90
2022/05/13 18:49:34;;;;;;;;;;;;;;;5.85;100.00;100052.84;6248183;23;19918;-92
2022/05/13 18:52:01;;;;;;;;;;;;;;;6.35;100.00;100046.59;6248708;23;19919;-91
2022/05/13 18:54:27;;;;;;;;;;;;;;;6.58;100.00;100046.97;6252584;23;19969;-93
2022/05/13 18:56:52;;;;;;;;;;;;;;;6.38;100.00;100056.16;6247774;23;19919;-88
2022/05/13 18:59:17;;;;;;;;;;;;;;;5.75;100.00;100054.78;6250124;23;20320;-88
2022/05/13 19:01:43;;;;;;;;;;;;;;;5.98;100.00;100052.59;6248793;23;19911;-96
2022/05/13 19:04:08;;;;;;;;;;;;;;;6.38;100.00;100052.66;6227426;23;19912;-93
2022/05/13 19:06:38;;;;;;;;;;;;;;;6.57;100.00;100053.13;6249267;23;19991;-88
2022/05/13 19:09:05;;;;;;;;;;;;;;;6.05;100.00;100052.47;6254411;23;20233;-91
2022/05/13 19:11:30;;;;;;;;;;;;;;;5.66;100.00;100054.94;6255359;23;19916;-95
2022/05/13 19:13:56;;;;;;;;;;;;;;;6.17;100.00;100057.47;6254148;23;20221;-96
2022/05/13 19:16:22;;;;;;;;;;;;;;;6.51;100.00;100062.91;6251889;23;20346;-95
2022/05/13 19:18:49;;;;;;;;;;;;;;;6.60;100.00;100056.56;6255675;23;20312;-94
2022/05/13 19:21:15;;;;;;;;;;;;;;;5.78;100.00;100063.47;6252274;23;19911;-92
2022/05/13 19:23:41;;;;;;;;;;;;;;;5.54;100.00;100067.41;6227147;23;19989;-95
2022/05/13 19:26:10;;;;;;;;;;;;;;;6.14;100.00;100068.06;6228309;23;19912;-91
2022/05/13 19:28:37;;;;;;;;;;;;;;;6.44;100.00;100071.81;6225654;23;19941;-94
2022/05/13 19:31:04;;;;;;;;;;;;;;;6.58;100.00;100075.94;6251838;23;20370;-94
2022/05/13 19:33:29;;;;;;;;;;;;;;;5.84;100.00;100075.66;6250000;23;19950;-94
2022/05/13 19:35:55;;;;;;;;;;;;;;;5.49;100.00;100086.78;6253825;23;19915;-95
2022/05/13 19:38:20;;;;;;;;;;;;;;;5.40;99.43;100077.31;6253912;23;19912;-88
2022/05/13 19:40:46;;;;;;;;;;;;;;;5.29;98.23;100087.97;6255612;23;19943;-93
2022/05/13 19:43:13;;;;;;;;;;;;;;;5.19;97.24;100082.00;6255803;23;19908;-85
2022/05/13 19:45:38;;;;;;;;;;;;;;;5.17;96.43;100091.69;6250595;23;19916;-91
2022/05/13 19:48:06;;;;;;;;;;;;;;;5.09;96.02;100086.56;6225094;23;19911;-91
2022/05/13 19:50:31;;;;;;;;;;;;;;;5.01;95.81;100093.69;6251989;23;20387;-87
2022/05/13 19:53:00;;;;;;;;;;;;;;;4.97;95.60;100091.13;6256216;23;19942;-95
2022/05/13 19:55:26;;;;;;;;;;;;;;;4.99;95.27;100097.22;6227995;23;19911;-94
2022/05/13 19:58:00;;;;;;;;;;;;;;;4.97;95.05;100096.38;6255349;23;19965;-91
2022/05/13 20:00:27;;;;;;;;;;;;;;;5.16;95.70;100097.81;6255206;23;19911;-96
2022/05/13 20:02:53;;;;;;;;;;;;;;;5.74;99.40;100098.59;6261468;23;19907;-89
2022/05/13 20:10:50;;;;;;;;;;;;;;;5.32;100.00;100102.84;6193249;23;19918;-91
2022/05/13 20:13:17;;;;;;;;;;;;;;;5.89;100.00;100104.47;6188297;23;19916;-93
2022/05/13 20:15:44;;;;;;;;;;;;;;;6.21;100.00;100095.13;6160544;23;19916;-95
2022/05/13 20:18:11;;;;;;;;;;;;;;;6.34;100.00;100096.63;6188010;23;19916;-95
2022/05/13 20:23:21;;;;;;;;;;;;;;;5.89;100.00;100100.09;6189559;23;20069;-95
2022/05/13 20:25:46;;;;;;;;;;;;;;;6.28;100.00;100100.22;6161533;23;19912;-96
2022/05/13 20:28:12;;;;;;;;;;;;;;;6.49;100.00;100098.94;6168092;23;19912;-83
2022/05/13 20:30:40;;;;;;;;;;;;;;;5.80;100.00;100105.50;6201034;23;20321;-96
2022/05/13 20:33:05;;;;;;;;;;;;;;;5.60;100.00;100104.13;6170030;23;19919;-91
2022/05/13 20:35:31;;;;;;;;;;;;;;;6.21;100.00;100109.16;6207175;23;19911;-83
2022/05/13 20:37:57;;;;;;;;;;;;;;;6.65;100.00;100104.75;6250868;23;19919;-95
2022/05/13 20:40:23;;;;;;;;;;;;;;;6.30;100.00;100106.34;6222145;23;19991;-84
2022/05/13 20:42:48;;;;;;;;;;;;;;;5.72;100.00;100102.16;6246717;23;19918;-87
2022/05/13 20:45:14;;;;;;;;;;;;;;;5.67;100.00;100104.00;6249517;23;19911;-93
2022/05/13 20:47:39;;;;;;;;;;;;;;;6.18;100.00;100103.97;6259081;23;20397;-86
2022/05/13 20:50:06;;;;;;;;;;;;;;;6.48;100.00;100093.72;6256913;23;19919;-93
2022/05/13 20:52:37;;;;;;;;;;;;;;;6.34;100.00;100097.47;6263590;23;19990;-83
2022/05/13 20:55:10;;;;;;;;;;;;;;;5.68;100.00;100105.72;6257708;23;20354;-90
2022/05/13 20:57:36;;;;;;;;;;;;;;;5.43;100.00;100106.16;6254130;23;19912;-93
2022/05/13 21:00:04;;;;;;;;;;;;;;;5.92;100.00;100110.56;6241450;22;19931;-88
2022/05/13 21:02:29;;;;;;;;;;;;;;;6.35;100.00;100101.84;6198259;23;19966;-93
2022/05/13 21:04:57;;;;;;;;;;;;;;;6.53;100.00;100112.91;6217982;23;19912;-90
2022/05/13 21:07:24;;;;;;;;;;;;;;;5.88;100.00;100103.59;6216794;23;19950;-89
2022/05/13 21:09:50;;;;;;;;;;;;;;;5.52;100.00;100110.38;6190236;23;20015;-93
2022/05/13 21:12:16;;;;;;;;;;;;;;;5.33;100.00;100109.81;6215696;23;20634;-91
2022/05/13 21:14:42;;;;;;;;;;;;;;;5.36;98.65;100109.75;6216755;23;19919;-93
2022/05/13 21:17:08;;;;;;;;;;;;;;;5.28;97.73;100115.13;6190187;23;19991;-93
2022/05/13 21:19:33;;;;;;;;;;;;;;;5.93;100.00;100116.66;6216252;23;20316;-90
2022/05/13 21:21:58;;;;;;;;;;;;;;;6.23;100.00;100111.75;6190602;23;19916;-92
2022/05/13 21:24:24;;;;;;;;;;;;;;;6.21;100.00;100114.41;6218669;23;19919;-85
2022/05/13 21:26:49;;;;;;;;;;;;;;;5.64;100.00;100121.56;6222336;23;19912;-84
2022/05/13 21:29:14;;;;;;;;;;;;;;;6.05;100.00;100123.47;6221823;23;19896;-90
2022/05/13 21:37:07;;;;;;;;;;;;;;;5.55;100.00;100128.72;6215921;23;20011;-92
2022/05/13 21:39:33;;;;;;;;;;;;;;;5.39;100.00;100128.13;6215867;23;19916;-83
2022/05/13 21:41:58;;;;;;;;;;;;;;;5.42;98.98;100133.31;6188054;23;19919;-87
2022/05/13 21:44:23;;;;;;;;;;;;;;;5.90;100.00;100129.88;6218224;23;20304;-93
2022/05/13 21:46:50;;;;;;;;;;;;;;;6.15;100.00;100127.69;6217967;23;19919;-92
2022/05/13 21:49:15;;;;;;;;;;;;;;;6.21;100.00;100132.84;6215994;23;19935;-84
2022/05/13 21:54:49;;;;;;;;;;;;;;;5.35;100.00;100131.69;6124274;23;19953;-85
2022/05/13 21:57:19;;;;;;;;;;;;;;;5.23;98.33;100136.25;6121346;23;19916;-89
2022/05/13 21:59:45;;;;;;;;;;;;;;;5.17;97.30;100125.84;6171031;23;19991;-93
2022/05/13 22:02:10;;;;;;;;;;;;;;;5.14;96.69;100119.75;6216121;23;19951;-92
2022/05/13 22:04:36;;;;;;;;;;;;;;;5.25;96.89;100123.09;6214033;23;19927;-83
2022/05/13 22:07:03;;;;;;;;;;;;;;;5.92;100.00;100118.44;6215369;23;19987;-92
2022/05/13 22:09:29;;;;;;;;;;;;;;;6.19;100.00;100124.13;6215813;23;19912;-90
2022/05/13 22:11:54;;;;;;;;;;;;;;;5.91;100.00;100124.59;6214036;23;20328;-91
2022/05/13 22:14:19;;;;;;;;;;;;;;;5.49;100.00;100127.09;6215061;23;19922;-90
2022/05/13 22:16:45;;;;;;;;;;;;;;;5.37;98.46;100128.13;6215174;23;20243;-89
2022/05/13 22:19:10;;;;;;;;;;;;;;;5.25;96.68;100131.84;6217746;23;19939;-87
2022/05/13 22:21:36;;;;;;;;;;;;;;;5.19;95.84;100128.44;6219927;23;19939;-87
2022/05/13 22:24:01;;;;;;;;;;;;;;;5.47;96.68;100139.38;6224491;23;19916;-90
2022/05/13 22:26:27;;;;;;;;;;;;;;;5.95;100.00;100133.28;6201126;23;19916;-92
2022/05/13 22:28:54;;;;;;;;;;;;;;;6.26;100.00;100138.03;6220545;23;19916;-84
2022/05/13 22:31:40;;;;;;;;;;;;;;;6.10;100.00;100134.81;6227437;23;19938;-93
2022/05/13 22:34:06;;;;;;;;;;;;;;;5.82;100.00;100137.91;6223205;23;19912;-89
2022/05/13 22:36:31;;;;;;;;;;;;;;;6.23;100.00;100131.03;6191738;23;20233;-95
2022/05/13 22:39:17;;;;;;;;;;;;;;;6.48;100.00;100131.44;6218234;23;19922;-89
2022/05/13 22:41:45;;;;;;;;;;;;;;;6.07;100.00;100137.50;6218096;23;20324;-89
2022/05/13 22:44:10;;;;;;;;;;;;;;;5.66;100.00;100136.44;6190578;23;19908;-92
2022/05/13 22:46:36;;;;;;;;;;;;;;;6.23;100.00;100135.44;6225033;23;19916;-90
2022/05/13 22:49:01;;;;;;;;;;;;;;;6.49;100.00;100132.28;6222580;23;19987;-90
2022/05/13 22:51:27;;;;;;;;;;;;;;;6.63;100.00;100124.09;6228352;23;19916;-82
2022/05/13 22:54:12;;;;;;;;;;;;;;;5.93;100.00;100132.47;6226805;23;20007;-94
2022/05/13 22:56:37;;;;;;;;;;;;;;;6.30;100.00;100126.53;6222870;23;19912;-92
2022/05/13 22:59:05;;;;;;;;;;;;;;;6.61;100.00;100132.03;6221605;23;19927;-84
2022/05/13 23:01:30;;;;;;;;;;;;;;;6.70;100.00;100130.94;6229783;23;19912;-89
2022/05/13 23:04:16;;;;;;;;;;;;;;;5.98;100.00;100130.63;6137923;23;19923;-91
2022/05/13 23:12:29;;;;;;;;;;;;;;;6.57;100.00;100132.13;6206491;23;19912;-83
2022/05/13 23:14:55;;;;;;;;;;;;;;;5.90;100.00;100127.25;6175418;23;19920;-91
2022/05/13 23:17:36;;;;;;;;;;;;;;;6.43;100.00;100132.41;6197597;22;20240;-87
2022/05/13 23:20:02;;;;;;;;;;;;;;;6.72;100.00;100124.78;6194711;23;19966;-90
2022/05/13 23:22:47;;;;;;;;;;;;;;;6.57;100.00;100129.50;6157508;23;19912;-89
2022/05/13 23:25:12;;;;;;;;;;;;;;;6.02;100.00;100136.72;6159339;23;19913;-88
2022/05/13 23:27:38;;;;;;;;;;;;;;;5.82;100.00;100130.91;6156875;23;20353;-83
2022/05/13 23:30:03;;;;;;;;;;;;;;;5.67;100.00;100125.03;6158967;23;19917;-84
2022/05/13 23:32:29;;;;;;;;;;;;;;;5.56;99.61;100133.09;6156339;23;19920;-94
2022/05/13 23:34:54;;;;;;;;;;;;;;;5.48;98.28;100135.84;6158165;23;20001;-91
2022/05/13 23:37:19;;;;;;;;;;;;;;;5.52;97.54;100132.31;6162781;23;20793;-93
2022/05/13 23:39:44;;;;;;;;;;;;;;;5.70;98.20;100136.38;6161360;23;19913;-95
2022/05/13 23:42:11;;;;;;;;;;;;;;;6.12;100.00;100138.28;6159130;23;19920;-88
2022/05/13 23:44:37;;;;;;;;;;;;;;;6.46;100.00;100135.88;6163758;23;19936;-95
2022/05/13 23:47:03;;;;;;;;;;;;;;;5.93;100.00;100137.72;6167411;23;20379;-95